sensor_id;sensor_type;location;lat;lon;timestamp;pressure;altitude;pressure_sealevel;temperature;humidity
16190;BME280;41754;51.498;7.540;2023-10-08T00:00:46;100973.84;;;17.99;66.64
16190;BME280;41754;51.498;7.540;2023-10-08T00:03:16;100971.50;;;18.06;66.53
16190;BME280;41754;51.498;7.540;2023-10-08T00:05:46;100974.16;;;18.06;66.75
16190;BME280;41754;51.498;7.540;2023-10-08T00:08:16;100965.84;;;17.99;67.25
16190;BME280;41754;51.498;7.540;2023-10-08T00:10:44;100978.47;;;17.97;67.28
16190;BME280;41754;51.498;7.540;2023-10-08T00:13:13;100971.13;;;17.89;67.08
16190;BME280;41754;51.498;7.540;2023-10-08T00:15:43;100967.50;;;17.90;67.52
16190;BME280;41754;51.498;7.540;2023-10-08T00:18:20;100974.78;;;17.88;67.50
16190;BME280;41754;51.498;7.540;2023-10-08T00:20:50;100971.69;;;17.93;67.17
16190;BME280;41754;51.498;7.540;2023-10-08T00:23:25;100973.84;;;17.99;66.86
16190;BME280;41754;51.498;7.540;2023-10-08T00:25:53;100981.88;;;17.88;67.27
16190;BME280;41754;51.498;7.540;2023-10-08T00:28:22;100987.22;;;17.88;67.45
16190;BME280;41754;51.498;7.540;2023-10-08T00:30:51;100994.25;;;17.89;67.41
16190;BME280;41754;51.498;7.540;2023-10-08T00:33:20;101001.97;;;17.92;67.50
16190;BME280;41754;51.498;7.540;2023-10-08T00:35:48;101009.25;;;17.90;67.40
16190;BME280;41754;51.498;7.540;2023-10-08T00:38:18;101007.56;;;17.89;66.82
16190;BME280;41754;51.498;7.540;2023-10-08T00:40:47;101003.41;;;17.85;67.69
16190;BME280;41754;51.498;7.540;2023-10-08T00:43:30;101018.00;;;17.69;67.57
16190;BME280;41754;51.498;7.540;2023-10-08T00:46:00;101008.63;;;17.65;67.92
16190;BME280;41754;51.498;7.540;2023-10-08T00:48:29;101003.75;;;17.70;68.00
16190;BME280;41754;51.498;7.540;2023-10-08T00:51:02;101005.50;;;17.60;68.04
16190;BME280;41754;51.498;7.540;2023-10-08T00:53:54;101005.69;;;17.68;67.84
16190;BME280;41754;51.498;7.540;2023-10-08T00:56:27;101009.91;;;17.71;67.70
16190;BME280;41754;51.498;7.540;2023-10-08T00:59:11;101019.50;;;17.62;68.56
16190;BME280;41754;51.498;7.540;2023-10-08T01:01:43;101010.56;;;17.63;68.58
16190;BME280;41754;51.498;7.540;2023-10-08T01:04:18;101009.50;;;17.54;68.60
16190;BME280;41754;51.498;7.540;2023-10-08T01:06:51;101012.63;;;17.59;68.64
16190;BME280;41754;51.498;7.540;2023-10-08T01:09:23;101009.16;;;17.48;68.29
16190;BME280;41754;51.498;7.540;2023-10-08T01:12:17;101008.91;;;17.51;68.72
16190;BME280;41754;51.498;7.540;2023-10-08T01:14:48;101005.66;;;17.47;68.80
16190;BME280;41754;51.498;7.540;2023-10-08T01:17:20;101012.81;;;17.47;68.99
16190;BME280;41754;51.498;7.540;2023-10-08T01:19:51;101024.66;;;17.42;68.57
16190;BME280;41754;51.498;7.540;2023-10-08T01:22:25;101027.41;;;17.52;68.77
16190;BME280;41754;51.498;7.540;2023-10-08T01:24:56;101043.38;;;17.52;68.77
16190;BME280;41754;51.498;7.540;2023-10-08T01:27:30;101046.38;;;17.59;68.20
16190;BME280;41754;51.498;7.540;2023-10-08T01:30:01;101057.25;;;17.56;68.32
16190;BME280;41754;51.498;7.540;2023-10-08T01:32:44;101067.44;;;17.51;68.30
16190;BME280;41754;51.498;7.540;2023-10-08T01:35:12;101047.94;;;17.61;68.21
16190;BME280;41754;51.498;7.540;2023-10-08T01:37:52;101052.34;;;17.51;68.43
16190;BME280;41754;51.498;7.540;2023-10-08T01:40:23;101055.59;;;17.55;68.44
16190;BME280;41754;51.498;7.540;2023-10-08T01:42:51;101064.63;;;17.64;68.54
16190;BME280;41754;51.498;7.540;2023-10-08T01:45:19;101055.13;;;17.50;68.21
16190;BME280;41754;51.498;7.540;2023-10-08T01:47:46;101064.56;;;17.42;68.95
16190;BME280;41754;51.498;7.540;2023-10-08T01:50:18;101049.28;;;17.56;68.54
16190;BME280;41754;51.498;7.540;2023-10-08T01:52:50;101044.72;;;17.47;68.53
16190;BME280;41754;51.498;7.540;2023-10-08T01:55:18;101034.75;;;17.60;68.16
16190;BME280;41754;51.498;7.540;2023-10-08T01:57:50;101043.00;;;17.57;68.08
16190;BME280;41754;51.498;7.540;2023-10-08T02:00:18;101055.47;;;17.56;68.71
16190;BME280;41754;51.498;7.540;2023-10-08T02:02:47;101046.75;;;17.54;68.40
16190;BME280;41754;51.498;7.540;2023-10-08T02:05:17;101050.97;;;17.57;68.71
16190;BME280;41754;51.498;7.540;2023-10-08T02:07:45;101058.75;;;17.49;68.60
16190;BME280;41754;51.498;7.540;2023-10-08T02:10:15;101068.31;;;17.51;69.00
16190;BME280;41754;51.498;7.540;2023-10-08T02:12:42;101060.09;;;17.43;69.01
16190;BME280;41754;51.498;7.540;2023-10-08T02:15:10;101053.91;;;17.42;68.76
16190;BME280;41754;51.498;7.540;2023-10-08T02:17:38;101035.00;;;17.57;68.71
16190;BME280;41754;51.498;7.540;2023-10-08T02:20:07;101054.13;;;17.51;68.88
16190;BME280;41754;51.498;7.540;2023-10-08T02:22:35;101049.84;;;17.38;69.19
16190;BME280;41754;51.498;7.540;2023-10-08T02:25:05;101045.81;;;17.44;68.88
16190;BME280;41754;51.498;7.540;2023-10-08T02:27:36;101052.50;;;17.38;69.16
16190;BME280;41754;51.498;7.540;2023-10-08T02:30:06;101015.75;;;17.32;69.58
16190;BME280;41754;51.498;7.540;2023-10-08T02:32:36;100983.38;;;17.27;69.51
16190;BME280;41754;51.498;7.540;2023-10-08T02:35:05;100981.22;;;17.21;69.94
16190;BME280;41754;51.498;7.540;2023-10-08T02:37:33;100992.06;;;17.29;69.79
16190;BME280;41754;51.498;7.540;2023-10-08T02:40:03;100972.03;;;17.25;69.78
16190;BME280;41754;51.498;7.540;2023-10-08T02:42:41;100918.09;;;17.02;70.53
16190;BME280;41754;51.498;7.540;2023-10-08T02:45:11;100944.31;;;16.95;71.19
16190;BME280;41754;51.498;7.540;2023-10-08T02:47:41;100979.81;;;17.05;71.03
16190;BME280;41754;51.498;7.540;2023-10-08T02:50:12;101007.16;;;16.96;71.46
16190;BME280;41754;51.498;7.540;2023-10-08T02:52:43;100981.28;;;16.98;70.87
16190;BME280;41754;51.498;7.540;2023-10-08T02:55:12;101005.78;;;17.13;71.01
16190;BME280;41754;51.498;7.540;2023-10-08T02:57:53;101039.00;;;17.08;70.80
16190;BME280;41754;51.498;7.540;2023-10-08T03:00:21;101040.97;;;17.05;70.72
16190;BME280;41754;51.498;7.540;2023-10-08T03:02:49;101018.09;;;17.14;70.12
16190;BME280;41754;51.498;7.540;2023-10-08T03:05:18;101015.84;;;17.10;70.37
16190;BME280;41754;51.498;7.540;2023-10-08T03:07:47;101011.22;;;17.12;70.75
16190;BME280;41754;51.498;7.540;2023-10-08T03:10:17;101017.56;;;16.99;71.13
16190;BME280;41754;51.498;7.540;2023-10-08T03:12:46;101061.38;;;17.05;71.14
16190;BME280;41754;51.498;7.540;2023-10-08T03:15:15;101070.09;;;17.07;70.90
16190;BME280;41754;51.498;7.540;2023-10-08T03:17:55;101072.84;;;17.05;70.38
16190;BME280;41754;51.498;7.540;2023-10-08T03:20:35;101083.59;;;17.15;70.70
16190;BME280;41754;51.498;7.540;2023-10-08T03:23:09;101085.69;;;17.00;70.90
16190;BME280;41754;51.498;7.540;2023-10-08T03:25:52;101087.13;;;17.04;70.94
16190;BME280;41754;51.498;7.540;2023-10-08T03:28:25;101074.91;;;17.13;70.59
16190;BME280;41754;51.498;7.540;2023-10-08T03:30:56;101080.59;;;16.97;70.79
16190;BME280;41754;51.498;7.540;2023-10-08T03:33:31;101077.47;;;17.03;70.58
16190;BME280;41754;51.498;7.540;2023-10-08T03:36:02;101063.22;;;16.93;70.82
16190;BME280;41754;51.498;7.540;2023-10-08T03:38:36;101065.63;;;16.96;70.76
16190;BME280;41754;51.498;7.540;2023-10-08T03:41:18;101048.59;;;16.99;70.77
16190;BME280;41754;51.498;7.540;2023-10-08T03:43:47;101050.88;;;16.92;70.77
16190;BME280;41754;51.498;7.540;2023-10-08T03:46:24;101025.41;;;16.90;71.56
16190;BME280;41754;51.498;7.540;2023-10-08T03:48:52;101047.28;;;16.93;71.00
16190;BME280;41754;51.498;7.540;2023-10-08T03:51:24;101062.13;;;16.96;71.70
16190;BME280;41754;51.498;7.540;2023-10-08T03:53:54;101067.47;;;16.84;71.71
16190;BME280;41754;51.498;7.540;2023-10-08T03:56:43;101055.38;;;16.92;71.49
16190;BME280;41754;51.498;7.540;2023-10-08T03:59:15;101042.19;;;16.90;71.91
16190;BME280;41754;51.498;7.540;2023-10-08T04:01:58;101030.13;;;16.86;71.96
16190;BME280;41754;51.498;7.540;2023-10-08T04:04:36;100986.75;;;16.74;72.30
16190;BME280;41754;51.498;7.540;2023-10-08T04:07:17;101033.59;;;16.64;72.52
16190;BME280;41754;51.498;7.540;2023-10-08T04:10:06;101022.97;;;16.75;72.07
16190;BME280;41754;51.498;7.540;2023-10-08T04:13:05;101074.56;;;16.61;72.93
16190;BME280;41754;51.498;7.540;2023-10-08T04:15:36;101079.03;;;16.61;72.37
16190;BME280;41754;51.498;7.540;2023-10-08T04:18:09;101069.97;;;16.75;72.17
16190;BME280;41754;51.498;7.540;2023-10-08T04:20:38;101087.34;;;16.79;72.28
16190;BME280;41754;51.498;7.540;2023-10-08T04:23:07;101074.31;;;16.64;72.13
16190;BME280;41754;51.498;7.540;2023-10-08T04:25:40;101078.16;;;16.60;72.27
16190;BME280;41754;51.498;7.540;2023-10-08T04:28:09;101073.56;;;16.74;71.52
16190;BME280;41754;51.498;7.540;2023-10-08T04:30:40;101079.03;;;16.61;71.80
16190;BME280;41754;51.498;7.540;2023-10-08T04:33:11;101085.78;;;16.76;72.04
16190;BME280;41754;51.498;7.540;2023-10-08T04:35:41;101073.47;;;16.75;71.76
16190;BME280;41754;51.498;7.540;2023-10-08T04:38:16;101069.25;;;16.73;71.45
16190;BME280;41754;51.498;7.540;2023-10-08T04:40:45;101084.69;;;16.67;72.06
16190;BME280;41754;51.498;7.540;2023-10-08T04:43:19;101085.03;;;16.51;71.89
16190;BME280;41754;51.498;7.540;2023-10-08T04:45:51;101080.47;;;16.65;71.54
16190;BME280;41754;51.498;7.540;2023-10-08T04:48:21;101078.66;;;16.54;71.95
16190;BME280;41754;51.498;7.540;2023-10-08T04:50:51;101066.69;;;16.48;72.33
16190;BME280;41754;51.498;7.540;2023-10-08T04:53:26;101048.22;;;16.36;72.51
16190;BME280;41754;51.498;7.540;2023-10-08T04:55:59;101065.84;;;16.48;71.75
16190;BME280;41754;51.498;7.540;2023-10-08T04:58:32;101075.97;;;16.43;72.05
16190;BME280;41754;51.498;7.540;2023-10-08T05:01:07;101046.06;;;16.41;72.37
16190;BME280;41754;51.498;7.540;2023-10-08T05:03:49;101069.47;;;16.36;72.80
16190;BME280;41754;51.498;7.540;2023-10-08T05:06:34;101071.38;;;16.22;72.89
16190;BME280;41754;51.498;7.540;2023-10-08T05:09:27;101110.03;;;16.38;73.12
16190;BME280;41754;51.498;7.540;2023-10-08T05:12:12;101143.81;;;16.36;73.10
16190;BME280;41754;51.498;7.540;2023-10-08T05:14:57;101139.72;;;16.43;72.92
16190;BME280;41754;51.498;7.540;2023-10-08T05:17:48;101145.44;;;16.25;72.92
16190;BME280;41754;51.498;7.540;2023-10-08T05:20:41;101148.53;;;16.43;72.79
16190;BME280;41754;51.498;7.540;2023-10-08T05:23:26;101135.84;;;16.36;73.40
16190;BME280;41754;51.498;7.540;2023-10-08T05:26:12;101144.72;;;16.23;73.33
16190;BME280;41754;51.498;7.540;2023-10-08T05:28:47;101141.78;;;16.39;73.00
16190;BME280;41754;51.498;7.540;2023-10-08T05:31:28;101142.13;;;16.35;73.40
16190;BME280;41754;51.498;7.540;2023-10-08T05:34:14;101138.72;;;16.32;73.60
16190;BME280;41754;51.498;7.540;2023-10-08T05:36:43;101136.19;;;16.31;73.56
16190;BME280;41754;51.498;7.540;2023-10-08T05:39:31;101134.59;;;16.28;73.88
16190;BME280;41754;51.498;7.540;2023-10-08T05:42:07;101130.28;;;16.27;73.87
16190;BME280;41754;51.498;7.540;2023-10-08T05:44:41;101140.81;;;16.05;74.45
16190;BME280;41754;51.498;7.540;2023-10-08T05:47:13;101127.34;;;16.19;74.67
16190;BME280;41754;51.498;7.540;2023-10-08T05:50:05;101106.78;;;16.10;74.64
16190;BME280;41754;51.498;7.540;2023-10-08T05:52:52;101105.34;;;16.06;75.29
16190;BME280;41754;51.498;7.540;2023-10-08T05:55:29;101104.53;;;16.17;75.25
16190;BME280;41754;51.498;7.540;2023-10-08T05:58:03;101108.72;;;16.08;75.07
16190;BME280;41754;51.498;7.540;2023-10-08T06:00:51;101132.72;;;16.06;75.48
16190;BME280;41754;51.498;7.540;2023-10-08T06:03:35;101155.19;;;16.13;75.30
16190;BME280;41754;51.498;7.540;2023-10-08T06:06:08;101159.59;;;16.26;75.25
16190;BME280;41754;51.498;7.540;2023-10-08T06:08:54;101146.03;;;16.18;75.30
16190;BME280;41754;51.498;7.540;2023-10-08T06:11:39;101140.13;;;16.14;75.08
16190;BME280;41754;51.498;7.540;2023-10-08T06:14:23;101127.41;;;16.06;75.20
16190;BME280;41754;51.498;7.540;2023-10-08T06:17:03;101141.63;;;16.05;76.37
16190;BME280;41754;51.498;7.540;2023-10-08T06:19:50;101148.47;;;15.97;75.94
16190;BME280;41754;51.498;7.540;2023-10-08T06:22:19;101174.06;;;15.98;76.38
16190;BME280;41754;51.498;7.540;2023-10-08T06:24:53;101192.34;;;16.13;76.09
16190;BME280;41754;51.498;7.540;2023-10-08T06:27:41;101191.50;;;16.13;75.89
16190;BME280;41754;51.498;7.540;2023-10-08T06:30:12;101201.28;;;16.12;75.46
16190;BME280;41754;51.498;7.540;2023-10-08T06:32:43;101196.81;;;16.13;76.09
16190;BME280;41754;51.498;7.540;2023-10-08T06:35:13;101212.75;;;16.13;75.71
16190;BME280;41754;51.498;7.540;2023-10-08T06:37:44;101222.66;;;16.11;75.75
16190;BME280;41754;51.498;7.540;2023-10-08T06:40:17;101213.59;;;16.13;75.77
16190;BME280;41754;51.498;7.540;2023-10-08T06:42:59;101218.78;;;16.15;76.02
16190;BME280;41754;51.498;7.540;2023-10-08T06:45:30;101215.47;;;16.24;75.92
16190;BME280;41754;51.498;7.540;2023-10-08T06:47:59;101214.25;;;16.28;75.87
16190;BME280;41754;51.498;7.540;2023-10-08T06:50:33;101248.06;;;16.26;76.58
16190;BME280;41754;51.498;7.540;2023-10-08T06:53:03;101259.69;;;16.12;76.81
16190;BME280;41754;51.498;7.540;2023-10-08T06:55:36;101240.28;;;15.62;78.24
16190;BME280;41754;51.498;7.540;2023-10-08T06:58:04;101255.91;;;15.41;79.45
16190;BME280;41754;51.498;7.540;2023-10-08T07:00:35;101233.97;;;15.13;80.67
16190;BME280;41754;51.498;7.540;2023-10-08T07:03:06;101239.69;;;15.07;81.25
16190;BME280;41754;51.498;7.540;2023-10-08T07:05:37;101277.44;;;15.11;81.69
16190;BME280;41754;51.498;7.540;2023-10-08T07:08:11;101282.63;;;15.12;81.24
16190;BME280;41754;51.498;7.540;2023-10-08T07:10:43;101290.88;;;14.82;83.42
16190;BME280;41754;51.498;7.540;2023-10-08T07:13:12;101290.66;;;14.85;83.20
16190;BME280;41754;51.498;7.540;2023-10-08T07:15:44;101291.19;;;14.90;83.04
16190;BME280;41754;51.498;7.540;2023-10-08T07:18:12;101286.16;;;14.45;84.37
16190;BME280;41754;51.498;7.540;2023-10-08T07:20:46;101298.31;;;14.35;84.19
16190;BME280;41754;51.498;7.540;2023-10-08T07:23:20;101298.56;;;14.18;84.45
16190;BME280;41754;51.498;7.540;2023-10-08T07:25:56;101312.66;;;14.04;84.68
16190;BME280;41754;51.498;7.540;2023-10-08T07:28:37;101305.59;;;13.90;85.16
16190;BME280;41754;51.498;7.540;2023-10-08T07:31:09;101306.56;;;13.75;86.68
16190;BME280;41754;51.498;7.540;2023-10-08T07:33:42;101309.34;;;14.00;85.56
16190;BME280;41754;51.498;7.540;2023-10-08T07:36:10;101302.66;;;13.95;85.80
16190;BME280;41754;51.498;7.540;2023-10-08T07:38:40;101316.19;;;13.90;86.44
16190;BME280;41754;51.498;7.540;2023-10-08T07:41:10;101314.84;;;13.97;85.94
16190;BME280;41754;51.498;7.540;2023-10-08T07:43:39;101314.44;;;14.18;85.23
16190;BME280;41754;51.498;7.540;2023-10-08T07:46:08;101316.91;;;14.06;85.38
16190;BME280;41754;51.498;7.540;2023-10-08T07:48:36;101299.25;;;13.92;86.80
16190;BME280;41754;51.498;7.540;2023-10-08T07:51:09;101280.69;;;13.80;88.22
16190;BME280;41754;51.498;7.540;2023-10-08T07:53:37;101295.97;;;13.75;88.33
16190;BME280;41754;51.498;7.540;2023-10-08T07:56:05;101314.84;;;13.97;87.17
16190;BME280;41754;51.498;7.540;2023-10-08T07:58:36;101313.34;;;13.79;87.91
16190;BME280;41754;51.498;7.540;2023-10-08T08:01:05;101314.88;;;13.68;88.77
16190;BME280;41754;51.498;7.540;2023-10-08T08:03:34;101305.81;;;13.72;88.59
16190;BME280;41754;51.498;7.540;2023-10-08T08:06:04;101314.19;;;14.08;87.40
16190;BME280;41754;51.498;7.540;2023-10-08T08:08:34;101313.16;;;13.82;87.80
16190;BME280;41754;51.498;7.540;2023-10-08T08:11:02;101318.53;;;13.80;87.48
16190;BME280;41754;51.498;7.540;2023-10-08T08:13:32;101318.25;;;13.70;87.19
16190;BME280;41754;51.498;7.540;2023-10-08T08:16:02;101331.13;;;13.91;86.79
16190;BME280;41754;51.498;7.540;2023-10-08T08:18:43;101340.13;;;14.16;85.11
16190;BME280;41754;51.498;7.540;2023-10-08T08:21:13;101347.31;;;13.99;85.54
16190;BME280;41754;51.498;7.540;2023-10-08T08:23:42;101352.53;;;14.01;85.63
16190;BME280;41754;51.498;7.540;2023-10-08T08:26:15;101363.03;;;13.88;85.46
16190;BME280;41754;51.498;7.540;2023-10-08T08:28:54;101360.28;;;13.46;87.04
16190;BME280;41754;51.498;7.540;2023-10-08T08:31:25;101362.34;;;13.55;87.71
16190;BME280;41754;51.498;7.540;2023-10-08T08:33:53;101362.25;;;13.57;87.50
16190;BME280;41754;51.498;7.540;2023-10-08T08:36:23;101361.13;;;13.47;86.83
16190;BME280;41754;51.498;7.540;2023-10-08T08:38:51;101367.66;;;13.25;87.30
16190;BME280;41754;51.498;7.540;2023-10-08T08:41:20;101368.31;;;13.59;85.67
16190;BME280;41754;51.498;7.540;2023-10-08T08:43:50;101373.97;;;13.67;84.18
16190;BME280;41754;51.498;7.540;2023-10-08T08:46:32;101368.44;;;13.27;84.20
16190;BME280;41754;51.498;7.540;2023-10-08T08:49:03;101362.34;;;13.11;84.88
16190;BME280;41754;51.498;7.540;2023-10-08T08:51:31;101372.69;;;12.99;84.57
16190;BME280;41754;51.498;7.540;2023-10-08T08:53:59;101378.63;;;13.03;84.33
16190;BME280;41754;51.498;7.540;2023-10-08T08:56:32;101392.69;;;13.04;84.33
16190;BME280;41754;51.498;7.540;2023-10-08T08:59:01;101394.25;;;13.22;84.17
16190;BME280;41754;51.498;7.540;2023-10-08T09:01:32;101390.84;;;13.20;84.14
16190;BME280;41754;51.498;7.540;2023-10-08T09:04:03;101388.94;;;13.08;83.94
16190;BME280;41754;51.498;7.540;2023-10-08T09:06:34;101379.63;;;13.32;82.60
16190;BME280;41754;51.498;7.540;2023-10-08T09:09:04;101377.25;;;13.12;83.27
16190;BME280;41754;51.498;7.540;2023-10-08T09:11:49;101391.66;;;13.06;83.89
16190;BME280;41754;51.498;7.540;2023-10-08T09:14:20;101405.44;;;13.27;83.13
16190;BME280;41754;51.498;7.540;2023-10-08T09:16:49;101405.09;;;13.33;82.55
16190;BME280;41754;51.498;7.540;2023-10-08T09:19:17;101409.53;;;13.33;82.77
16190;BME280;41754;51.498;7.540;2023-10-08T09:22:00;101422.78;;;13.31;81.90
16190;BME280;41754;51.498;7.540;2023-10-08T09:24:31;101430.41;;;13.38;81.72
16190;BME280;41754;51.498;7.540;2023-10-08T09:27:00;101437.91;;;13.29;81.74
16190;BME280;41754;51.498;7.540;2023-10-08T09:29:29;101439.50;;;13.48;80.34
16190;BME280;41754;51.498;7.540;2023-10-08T09:31:59;101435.19;;;13.15;80.46
16190;BME280;41754;51.498;7.540;2023-10-08T09:34:28;101424.44;;;13.18;80.52
16190;BME280;41754;51.498;7.540;2023-10-08T09:36:57;101422.63;;;13.04;79.34
16190;BME280;41754;51.498;7.540;2023-10-08T09:39:27;101425.59;;;13.14;79.36
16190;BME280;41754;51.498;7.540;2023-10-08T09:42:02;101429.78;;;13.02;79.08
16190;BME280;41754;51.498;7.540;2023-10-08T09:44:33;101436.22;;;13.12;78.99
16190;BME280;41754;51.498;7.540;2023-10-08T09:47:04;101440.47;;;13.15;79.05
16190;BME280;41754;51.498;7.540;2023-10-08T09:49:38;101438.59;;;13.33;77.78
16190;BME280;41754;51.498;7.540;2023-10-08T09:52:08;101431.25;;;13.22;78.17
16190;BME280;41754;51.498;7.540;2023-10-08T09:54:42;101419.16;;;13.34;77.96
16190;BME280;41754;51.498;7.540;2023-10-08T09:57:11;101414.88;;;13.62;76.32
16190;BME280;41754;51.498;7.540;2023-10-08T09:59:39;101412.50;;;13.57;76.10
16190;BME280;41754;51.498;7.540;2023-10-08T10:02:10;101414.28;;;13.57;76.17
16190;BME280;41754;51.498;7.540;2023-10-08T10:04:42;101410.53;;;13.75;75.44
16190;BME280;41754;51.498;7.540;2023-10-08T10:07:12;101413.00;;;13.92;75.16
16190;BME280;41754;51.498;7.540;2023-10-08T10:09:43;101409.31;;;14.24;74.52
16190;BME280;41754;51.498;7.540;2023-10-08T10:12:12;101408.56;;;14.36;73.85
16190;BME280;41754;51.498;7.540;2023-10-08T10:14:41;101411.34;;;14.47;72.99
16190;BME280;41754;51.498;7.540;2023-10-08T10:17:13;101409.56;;;14.62;72.98
16190;BME280;41754;51.498;7.540;2023-10-08T10:20:00;101419.19;;;15.05;72.00
16190;BME280;41754;51.498;7.540;2023-10-08T10:22:30;101423.69;;;15.43;71.23
16190;BME280;41754;51.498;7.540;2023-10-08T10:24:59;101436.06;;;15.30;70.80
16190;BME280;41754;51.498;7.540;2023-10-08T10:27:30;101436.50;;;15.36;71.21
16190;BME280;41754;51.498;7.540;2023-10-08T10:30:02;101436.13;;;14.75;71.77
16190;BME280;41754;51.498;7.540;2023-10-08T10:32:36;101432.56;;;14.33;73.90
16190;BME280;41754;51.498;7.540;2023-10-08T10:35:05;101427.38;;;14.32;74.19
16190;BME280;41754;51.498;7.540;2023-10-08T10:37:38;101430.06;;;14.44;74.08
16190;BME280;41754;51.498;7.540;2023-10-08T10:40:10;101434.63;;;14.42;74.68
16190;BME280;41754;51.498;7.540;2023-10-08T10:42:39;101435.69;;;14.40;74.49
16190;BME280;41754;51.498;7.540;2023-10-08T10:45:14;101436.34;;;14.43;74.29
16190;BME280;41754;51.498;7.540;2023-10-08T10:48:04;101438.72;;;14.34;74.04
16190;BME280;41754;51.498;7.540;2023-10-08T10:50:50;101434.81;;;14.54;73.60
16190;BME280;41754;51.498;7.540;2023-10-08T10:53:32;101434.44;;;14.45;73.71
16190;BME280;41754;51.498;7.540;2023-10-08T10:56:01;101435.13;;;14.35;74.01
16190;BME280;41754;51.498;7.540;2023-10-08T10:58:36;101437.38;;;14.97;72.71
16190;BME280;41754;51.498;7.540;2023-10-08T11:01:06;101431.19;;;14.69;73.04
16190;BME280;41754;51.498;7.540;2023-10-08T11:03:44;101438.22;;;14.70;73.01
16190;BME280;41754;51.498;7.540;2023-10-08T11:06:15;101429.78;;;15.05;72.73
16190;BME280;41754;51.498;7.540;2023-10-08T11:08:49;101419.06;;;15.07;71.34
16190;BME280;41754;51.498;7.540;2023-10-08T11:11:25;101417.66;;;15.67;69.84
16190;BME280;41754;51.498;7.540;2023-10-08T11:13:56;101407.31;;;15.76;68.99
16190;BME280;41754;51.498;7.540;2023-10-08T11:16:27;101403.81;;;15.76;69.68
16190;BME280;41754;51.498;7.540;2023-10-08T11:18:59;101411.00;;;15.61;69.99
16190;BME280;41754;51.498;7.540;2023-10-08T11:21:48;101407.69;;;15.32;70.25
16190;BME280;41754;51.498;7.540;2023-10-08T11:24:27;101413.72;;;15.34;70.13
16190;BME280;41754;51.498;7.540;2023-10-08T11:26:55;101412.31;;;15.28;70.32
16190;BME280;41754;51.498;7.540;2023-10-08T11:29:33;101409.94;;;15.64;70.95
16190;BME280;41754;51.498;7.540;2023-10-08T11:32:05;101403.59;;;16.05;69.79
16190;BME280;41754;51.498;7.540;2023-10-08T11:34:36;101407.09;;;15.92;69.67
16190;BME280;41754;51.498;7.540;2023-10-08T11:37:05;101411.56;;;15.79;70.09
16190;BME280;41754;51.498;7.540;2023-10-08T11:39:46;101405.09;;;16.09;69.91
16190;BME280;41754;51.498;7.540;2023-10-08T11:42:15;101404.81;;;16.25;68.45
16190;BME280;41754;51.498;7.540;2023-10-08T11:45:00;101405.19;;;15.94;69.22
16190;BME280;41754;51.498;7.540;2023-10-08T11:47:45;101404.34;;;15.81;69.65
16190;BME280;41754;51.498;7.540;2023-10-08T11:50:17;101398.59;;;16.13;68.64
16190;BME280;41754;51.498;7.540;2023-10-08T11:52:46;101395.66;;;15.79;68.76
16190;BME280;41754;51.498;7.540;2023-10-08T11:55:14;101387.47;;;16.32;67.32
16190;BME280;41754;51.498;7.540;2023-10-08T11:57:46;101387.31;;;16.22;67.46
16190;BME280;41754;51.498;7.540;2023-10-08T12:00:16;101383.94;;;16.07;67.77
16190;BME280;41754;51.498;7.540;2023-10-08T12:02:58;101384.78;;;16.08;67.94
16190;BME280;41754;51.498;7.540;2023-10-08T12:05:30;101384.81;;;16.45;66.03
16190;BME280;41754;51.498;7.540;2023-10-08T12:08:01;101372.09;;;16.61;66.10
16190;BME280;41754;51.498;7.540;2023-10-08T12:10:29;101381.25;;;16.57;65.54
16190;BME280;41754;51.498;7.540;2023-10-08T12:13:01;101381.94;;;16.72;66.44
16190;BME280;41754;51.498;7.540;2023-10-08T12:15:32;101375.16;;;16.92;65.20
16190;BME280;41754;51.498;7.540;2023-10-08T12:18:05;101380.41;;;16.20;66.91
16190;BME280;41754;51.498;7.540;2023-10-08T12:20:42;101376.25;;;16.28;67.19
16190;BME280;41754;51.498;7.540;2023-10-08T12:23:12;101378.75;;;16.43;67.13
16190;BME280;41754;51.498;7.540;2023-10-08T12:25:49;101381.59;;;16.16;67.90
16190;BME280;41754;51.498;7.540;2023-10-08T12:28:19;101379.03;;;16.75;66.32
16190;BME280;41754;51.498;7.540;2023-10-08T12:30:47;101379.13;;;16.86;66.36
16190;BME280;41754;51.498;7.540;2023-10-08T12:33:16;101367.34;;;17.02;64.98
16190;BME280;41754;51.498;7.540;2023-10-08T12:35:49;101365.03;;;16.73;66.39
16190;BME280;41754;51.498;7.540;2023-10-08T12:38:20;101361.84;;;16.44;66.68
16190;BME280;41754;51.498;7.540;2023-10-08T12:40:49;101365.41;;;16.31;67.25
16190;BME280;41754;51.498;7.540;2023-10-08T12:43:20;101357.31;;;16.57;66.25
16190;BME280;41754;51.498;7.540;2023-10-08T12:45:49;101358.41;;;16.79;66.08
16190;BME280;41754;51.498;7.540;2023-10-08T12:48:20;101347.00;;;16.65;66.50
16190;BME280;41754;51.498;7.540;2023-10-08T12:50:50;101350.34;;;17.16;65.21
16190;BME280;41754;51.498;7.540;2023-10-08T12:53:25;101338.41;;;16.38;67.02
16190;BME280;41754;51.498;7.540;2023-10-08T12:56:01;101341.59;;;16.91;66.50
16190;BME280;41754;51.498;7.540;2023-10-08T12:58:35;101339.59;;;17.06;66.02
16190;BME280;41754;51.498;7.540;2023-10-08T13:01:08;101337.56;;;16.61;66.83
16190;BME280;41754;51.498;7.540;2023-10-08T13:03:37;101338.66;;;16.94;66.53
16190;BME280;41754;51.498;7.540;2023-10-08T13:06:10;101331.81;;;16.67;67.00
16190;BME280;41754;51.498;7.540;2023-10-08T13:08:41;101330.16;;;16.29;68.15
16190;BME280;41754;51.498;7.540;2023-10-08T13:11:10;101333.75;;;16.28;68.54
16190;BME280;41754;51.498;7.540;2023-10-08T13:13:38;101325.59;;;16.19;68.72
16190;BME280;41754;51.498;7.540;2023-10-08T13:16:06;101318.41;;;16.45;68.58
16190;BME280;41754;51.498;7.540;2023-10-08T13:18:34;101308.88;;;16.42;68.75
16190;BME280;41754;51.498;7.540;2023-10-08T13:21:04;101304.59;;;16.64;68.67